sensor_id;sensor_type;location;lat;lon;timestamp;temperature;humidity
38592;DHT22;24356;48.460;11.450;2023-05-23T00:00:26;15.70;76.20
38592;DHT22;24356;48.460;11.450;2023-05-23T00:02:53;15.70;76.50
38592;DHT22;24356;48.460;11.450;2023-05-23T00:05:18;15.70;76.40
38592;DHT22;24356;48.460;11.450;2023-05-23T00:07:44;15.70;76.40
38592;DHT22;24356;48.460;11.450;2023-05-23T00:10:10;15.70;76.20
38592;DHT22;24356;48.460;11.450;2023-05-23T00:12:36;15.70;76.50
38592;DHT22;24356;48.460;11.450;2023-05-23T00:15:04;15.70;76.20
38592;DHT22;24356;48.460;11.450;2023-05-23T00:17:32;15.70;76.40
38592;DHT22;24356;48.460;11.450;2023-05-23T00:19:58;15.70;76.30
38592;DHT22;24356;48.460;11.450;2023-05-23T00:22:23;15.70;76.60
38592;DHT22;24356;48.460;11.450;2023-05-23T00:24:49;15.70;76.60
38592;DHT22;24356;48.460;11.450;2023-05-23T00:27:14;15.70;76.60
38592;DHT22;24356;48.460;11.450;2023-05-23T00:29:40;15.70;76.90
38592;DHT22;24356;48.460;11.450;2023-05-23T00:32:06;15.70;76.80
38592;DHT22;24356;48.460;11.450;2023-05-23T00:34:31;15.70;77.60
38592;DHT22;24356;48.460;11.450;2023-05-23T00:36:57;15.70;77.10
38592;DHT22;24356;48.460;11.450;2023-05-23T00:39:22;15.70;77.50
38592;DHT22;24356;48.460;11.450;2023-05-23T00:41:49;15.70;77.10
38592;DHT22;24356;48.460;11.450;2023-05-23T00:44:15;15.80;77.20
38592;DHT22;24356;48.460;11.450;2023-05-23T00:46:43;15.80;77.20
38592;DHT22;24356;48.460;11.450;2023-05-23T00:49:10;15.80;77.20
38592;DHT22;24356;48.460;11.450;2023-05-23T00:51:37;15.80;77.40
38592;DHT22;24356;48.460;11.450;2023-05-23T00:54:04;15.80;77.30
38592;DHT22;24356;48.460;11.450;2023-05-23T00:56:30;15.80;77.80
38592;DHT22;24356;48.460;11.450;2023-05-23T00:58:55;15.80;77.70
38592;DHT22;24356;48.460;11.450;2023-05-23T01:01:21;15.80;77.60
38592;DHT22;24356;48.460;11.450;2023-05-23T01:03:47;15.80;77.40
38592;DHT22;24356;48.460;11.450;2023-05-23T01:06:13;15.90;77.50
38592;DHT22;24356;48.460;11.450;2023-05-23T01:08:39;15.90;77.50
38592;DHT22;24356;48.460;11.450;2023-05-23T01:11:13;15.90;77.30
38592;DHT22;24356;48.460;11.450;2023-05-23T01:13:54;15.90;77.50
38592;DHT22;24356;48.460;11.450;2023-05-23T01:16:38;15.90;77.80
38592;DHT22;24356;48.460;11.450;2023-05-23T01:25:53;15.90;77.60
38592;DHT22;24356;48.460;11.450;2023-05-23T01:28:04;15.90;78.40
38592;DHT22;24356;48.460;11.450;2023-05-23T01:30:33;15.90;77.80
38592;DHT22;24356;48.460;11.450;2023-05-23T01:33:00;15.90;77.60
38592;DHT22;24356;48.460;11.450;2023-05-23T01:35:26;16.00;78.10
38592;DHT22;24356;48.460;11.450;2023-05-23T01:37:53;15.90;78.10
38592;DHT22;24356;48.460;11.450;2023-05-23T01:40:19;15.90;78.00
38592;DHT22;24356;48.460;11.450;2023-05-23T01:42:45;15.90;77.90
38592;DHT22;24356;48.460;11.450;2023-05-23T01:45:12;15.90;77.80
38592;DHT22;24356;48.460;11.450;2023-05-23T01:47:39;15.90;78.10
38592;DHT22;24356;48.460;11.450;2023-05-23T01:50:06;15.90;78.30
38592;DHT22;24356;48.460;11.450;2023-05-23T01:52:33;15.80;78.30
38592;DHT22;24356;48.460;11.450;2023-05-23T01:54:59;15.80;78.00
38592;DHT22;24356;48.460;11.450;2023-05-23T01:57:26;15.80;77.80
38592;DHT22;24356;48.460;11.450;2023-05-23T01:59:53;15.80;78.10
38592;DHT22;24356;48.460;11.450;2023-05-23T02:02:19;15.80;78.00
38592;DHT22;24356;48.460;11.450;2023-05-23T02:04:45;15.70;78.00
38592;DHT22;24356;48.460;11.450;2023-05-23T02:07:10;15.70;77.70
38592;DHT22;24356;48.460;11.450;2023-05-23T02:09:36;15.70;77.90
38592;DHT22;24356;48.460;11.450;2023-05-23T02:12:01;15.70;77.80
38592;DHT22;24356;48.460;11.450;2023-05-23T02:14:28;15.60;77.80
38592;DHT22;24356;48.460;11.450;2023-05-23T02:16:53;15.60;78.00
38592;DHT22;24356;48.460;11.450;2023-05-23T02:19:19;15.60;78.30
38592;DHT22;24356;48.460;11.450;2023-05-23T02:21:45;15.60;78.30
38592;DHT22;24356;48.460;11.450;2023-05-23T02:24:10;15.60;78.30
38592;DHT22;24356;48.460;11.450;2023-05-23T02:26:36;15.50;78.50
38592;DHT22;24356;48.460;11.450;2023-05-23T02:29:02;15.50;78.30
38592;DHT22;24356;48.460;11.450;2023-05-23T02:31:28;15.50;78.20
38592;DHT22;24356;48.460;11.450;2023-05-23T02:33:54;15.50;78.20
38592;DHT22;24356;48.460;11.450;2023-05-23T02:36:19;15.40;78.20
38592;DHT22;24356;48.460;11.450;2023-05-23T02:38:45;15.40;78.30
38592;DHT22;24356;48.460;11.450;2023-05-23T02:41:10;15.40;78.20
38592;DHT22;24356;48.460;11.450;2023-05-23T02:43:36;15.40;78.10
38592;DHT22;24356;48.460;11.450;2023-05-23T02:46:02;15.30;77.90
38592;DHT22;24356;48.460;11.450;2023-05-23T02:48:27;15.30;77.90
38592;DHT22;24356;48.460;11.450;2023-05-23T02:50:53;15.30;77.80
38592;DHT22;24356;48.460;11.450;2023-05-23T02:53:18;15.20;77.80
38592;DHT22;24356;48.460;11.450;2023-05-23T02:55:44;15.20;77.80
38592;DHT22;24356;48.460;11.450;2023-05-23T02:58:10;15.20;77.80
38592;DHT22;24356;48.460;11.450;2023-05-23T03:00:35;15.10;77.80
38592;DHT22;24356;48.460;11.450;2023-05-23T03:03:01;15.10;77.80
38592;DHT22;24356;48.460;11.450;2023-05-23T03:05:27;15.10;77.80
38592;DHT22;24356;48.460;11.450;2023-05-23T03:07:52;15.00;78.00
38592;DHT22;24356;48.460;11.450;2023-05-23T03:10:19;15.00;77.90
38592;DHT22;24356;48.460;11.450;2023-05-23T03:12:45;15.00;78.10
38592;DHT22;24356;48.460;11.450;2023-05-23T03:15:11;14.90;78.00
38592;DHT22;24356;48.460;11.450;2023-05-23T03:17:37;14.90;78.20
38592;DHT22;24356;48.460;11.450;2023-05-23T03:20:03;14.90;78.10
38592;DHT22;24356;48.460;11.450;2023-05-23T03:22:29;14.80;78.30
38592;DHT22;24356;48.460;11.450;2023-05-23T03:24:55;14.80;78.30
38592;DHT22;24356;48.460;11.450;2023-05-23T03:27:20;14.80;78.30
38592;DHT22;24356;48.460;11.450;2023-05-23T03:29:46;14.80;78.50
38592;DHT22;24356;48.460;11.450;2023-05-23T03:32:12;14.70;78.50
38592;DHT22;24356;48.460;11.450;2023-05-23T03:34:38;14.70;78.50
38592;DHT22;24356;48.460;11.450;2023-05-23T03:37:04;14.70;79.40
38592;DHT22;24356;48.460;11.450;2023-05-23T03:39:30;14.70;78.80
38592;DHT22;24356;48.460;11.450;2023-05-23T03:41:55;14.70;78.70
38592;DHT22;24356;48.460;11.450;2023-05-23T03:44:21;14.60;78.70
38592;DHT22;24356;48.460;11.450;2023-05-23T03:46:46;14.60;78.70
38592;DHT22;24356;48.460;11.450;2023-05-23T03:49:12;14.60;78.70
38592;DHT22;24356;48.460;11.450;2023-05-23T03:51:39;14.60;78.90
38592;DHT22;24356;48.460;11.450;2023-05-23T03:54:05;14.60;78.80
38592;DHT22;24356;48.460;11.450;2023-05-23T03:56:30;14.50;78.80
38592;DHT22;24356;48.460;11.450;2023-05-23T03:58:56;14.50;78.80
38592;DHT22;24356;48.460;11.450;2023-05-23T04:01:21;14.50;78.70
38592;DHT22;24356;48.460;11.450;2023-05-23T04:03:48;14.50;78.80
38592;DHT22;24356;48.460;11.450;2023-05-23T04:06:14;14.50;79.20
38592;DHT22;24356;48.460;11.450;2023-05-23T04:08:41;14.50;78.80
38592;DHT22;24356;48.460;11.450;2023-05-23T04:11:07;14.50;78.80
38592;DHT22;24356;48.460;11.450;2023-05-23T04:13:33;14.50;78.60
38592;DHT22;24356;48.460;11.450;2023-05-23T04:16:00;14.50;78.80
38592;DHT22;24356;48.460;11.450;2023-05-23T04:18:30;14.50;78.80
38592;DHT22;24356;48.460;11.450;2023-05-23T04:20:57;14.50;78.80
38592;DHT22;24356;48.460;11.450;2023-05-23T04:23:23;14.50;79.40
38592;DHT22;24356;48.460;11.450;2023-05-23T04:25:49;14.50;78.80
38592;DHT22;24356;48.460;11.450;2023-05-23T04:28:15;14.50;79.00
38592;DHT22;24356;48.460;11.450;2023-05-23T04:30:42;14.50;79.00
38592;DHT22;24356;48.460;11.450;2023-05-23T04:33:08;14.50;79.20
38592;DHT22;24356;48.460;11.450;2023-05-23T04:35:34;14.50;80.30
38592;DHT22;24356;48.460;11.450;2023-05-23T04:38:03;14.50;79.50
38592;DHT22;24356;48.460;11.450;2023-05-23T04:40:29;14.50;80.30
38592;DHT22;24356;48.460;11.450;2023-05-23T04:42:56;14.50;79.70
38592;DHT22;24356;48.460;11.450;2023-05-23T04:45:22;14.60;79.60
38592;DHT22;24356;48.460;11.450;2023-05-23T04:47:48;14.60;79.90
38592;DHT22;24356;48.460;11.450;2023-05-23T04:50:15;14.60;79.90
38592;DHT22;24356;48.460;11.450;2023-05-23T04:52:41;14.60;79.80
38592;DHT22;24356;48.460;11.450;2023-05-23T04:55:07;14.60;79.60
38592;DHT22;24356;48.460;11.450;2023-05-23T04:57:33;14.70;79.80
38592;DHT22;24356;48.460;11.450;2023-05-23T05:00:00;14.70;79.50
38592;DHT22;24356;48.460;11.450;2023-05-23T05:02:26;14.70;79.60
38592;DHT22;24356;48.460;11.450;2023-05-23T05:04:52;14.70;79.80
38592;DHT22;24356;48.460;11.450;2023-05-23T05:07:19;14.70;79.40
38592;DHT22;24356;48.460;11.450;2023-05-23T05:09:46;14.80;80.50
38592;DHT22;24356;48.460;11.450;2023-05-23T05:12:11;14.80;80.20
38592;DHT22;24356;48.460;11.450;2023-05-23T05:14:37;14.80;79.80
38592;DHT22;24356;48.460;11.450;2023-05-23T05:17:03;14.80;80.10
38592;DHT22;24356;48.460;11.450;2023-05-23T05:19:29;14.90;80.30
38592;DHT22;24356;48.460;11.450;2023-05-23T05:21:54;14.90;80.60
38592;DHT22;24356;48.460;11.450;2023-05-23T05:24:22;15.00;80.40
38592;DHT22;24356;48.460;11.450;2023-05-23T05:26:47;15.00;80.10
38592;DHT22;24356;48.460;11.450;2023-05-23T05:29:13;15.00;80.10
38592;DHT22;24356;48.460;11.450;2023-05-23T05:31:39;15.10;81.00
38592;DHT22;24356;48.460;11.450;2023-05-23T05:34:05;15.10;80.50
38592;DHT22;24356;48.460;11.450;2023-05-23T05:36:30;15.20;80.80
38592;DHT22;24356;48.460;11.450;2023-05-23T05:38:56;15.20;80.50
38592;DHT22;24356;48.460;11.450;2023-05-23T05:41:22;15.30;81.10
38592;DHT22;24356;48.460;11.450;2023-05-23T05:43:48;15.30;80.90
38592;DHT22;24356;48.460;11.450;2023-05-23T05:46:13;15.40;80.70
38592;DHT22;24356;48.460;11.450;2023-05-23T05:48:39;15.40;80.90
38592;DHT22;24356;48.460;11.450;2023-05-23T05:51:04;15.40;80.90
38592;DHT22;24356;48.460;11.450;2023-05-23T05:53:30;15.50;81.30
38592;DHT22;24356;48.460;11.450;2023-05-23T05:55:56;15.50;81.20
38592;DHT22;24356;48.460;11.450;2023-05-23T05:58:21;15.50;81.30
38592;DHT22;24356;48.460;11.450;2023-05-23T06:00:48;15.60;81.00
38592;DHT22;24356;48.460;11.450;2023-05-23T06:03:14;15.60;81.20
38592;DHT22;24356;48.460;11.450;2023-05-23T06:05:40;15.70;81.30
38592;DHT22;24356;48.460;11.450;2023-05-23T06:08:06;15.80;81.60
38592;DHT22;24356;48.460;11.450;2023-05-23T06:10:32;15.90;81.50
38592;DHT22;24356;48.460;11.450;2023-05-23T06:12:58;16.00;81.70
38592;DHT22;24356;48.460;11.450;2023-05-23T06:15:24;16.10;81.50
38592;DHT22;24356;48.460;11.450;2023-05-23T06:17:51;16.20;81.50
38592;DHT22;24356;48.460;11.450;2023-05-23T06:20:17;16.30;81.50
38592;DHT22;24356;48.460;11.450;2023-05-23T06:22:42;16.50;81.60
38592;DHT22;24356;48.460;11.450;2023-05-23T06:25:08;16.60;81.70
38592;DHT22;24356;48.460;11.450;2023-05-23T06:27:33;16.70;81.60
38592;DHT22;24356;48.460;11.450;2023-05-23T06:29:59;16.80;81.20
38592;DHT22;24356;48.460;11.450;2023-05-23T06:32:25;16.90;81.00
38592;DHT22;24356;48.460;11.450;2023-05-23T06:34:50;17.00;81.00
38592;DHT22;24356;48.460;11.450;2023-05-23T06:37:16;17.10;80.70
38592;DHT22;24356;48.460;11.450;2023-05-23T06:39:42;17.20;80.80
38592;DHT22;24356;48.460;11.450;2023-05-23T06:42:08;17.30;80.80
38592;DHT22;24356;48.460;11.450;2023-05-23T06:44:34;17.40;80.70
38592;DHT22;24356;48.460;11.450;2023-05-23T06:46:59;17.50;80.30
38592;DHT22;24356;48.460;11.450;2023-05-23T06:56:47;17.80;79.90
38592;DHT22;24356;48.460;11.450;2023-05-23T06:59:13;17.90;79.90
38592;DHT22;24356;48.460;11.450;2023-05-23T07:05:01;18.20;79.80
38592;DHT22;24356;48.460;11.450;2023-05-23T07:07:26;18.30;79.70
38592;DHT22;24356;48.460;11.450;2023-05-23T07:09:52;18.40;79.60
38592;DHT22;24356;48.460;11.450;2023-05-23T07:12:17;18.50;79.40
38592;DHT22;24356;48.460;11.450;2023-05-23T07:14:43;18.50;79.40
38592;DHT22;24356;48.460;11.450;2023-05-23T07:17:09;18.60;79.10
38592;DHT22;24356;48.460;11.450;2023-05-23T07:19:35;18.60;79.00
38592;DHT22;24356;48.460;11.450;2023-05-23T07:22:00;18.70;78.80
38592;DHT22;24356;48.460;11.450;2023-05-23T07:24:26;18.70;78.80
38592;DHT22;24356;48.460;11.450;2023-05-23T07:26:51;18.80;78.70
38592;DHT22;24356;48.460;11.450;2023-05-23T07:29:17;18.80;78.50
38592;DHT22;24356;48.460;11.450;2023-05-23T07:31:43;18.80;78.50
38592;DHT22;24356;48.460;11.450;2023-05-23T07:34:09;18.90;78.10
38592;DHT22;24356;48.460;11.450;2023-05-23T07:36:34;18.90;78.60
38592;DHT22;24356;48.460;11.450;2023-05-23T07:39:02;19.10;78.80
38592;DHT22;24356;48.460;11.450;2023-05-23T07:41:28;19.20;78.80
38592;DHT22;24356;48.460;11.450;2023-05-23T07:43:53;19.40;78.60
38592;DHT22;24356;48.460;11.450;2023-05-23T07:46:27;19.50;78.30
38592;DHT22;24356;48.460;11.450;2023-05-23T07:48:52;19.60;78.20
38592;DHT22;24356;48.460;11.450;2023-05-23T07:51:18;19.70;78.20
38592;DHT22;24356;48.460;11.450;2023-05-23T07:53:46;19.90;78.40
38592;DHT22;24356;48.460;11.450;2023-05-23T07:56:11;20.00;77.90
38592;DHT22;24356;48.460;11.450;2023-05-23T07:58:37;20.10;77.80
38592;DHT22;24356;48.460;11.450;2023-05-23T08:01:02;20.20;77.80
38592;DHT22;24356;48.460;11.450;2023-05-23T08:03:28;20.40;77.80
38592;DHT22;24356;48.460;11.450;2023-05-23T08:05:54;20.50;77.90
38592;DHT22;24356;48.460;11.450;2023-05-23T08:08:20;20.70;77.80
38592;DHT22;24356;48.460;11.450;2023-05-23T08:10:46;20.80;77.80
38592;DHT22;24356;48.460;11.450;2023-05-23T08:13:12;21.00;77.80
38592;DHT22;24356;48.460;11.450;2023-05-23T08:15:38;21.20;77.60
38592;DHT22;24356;48.460;11.450;2023-05-23T08:18:04;21.40;77.70
38592;DHT22;24356;48.460;11.450;2023-05-23T08:20:29;21.60;77.60
38592;DHT22;24356;48.460;11.450;2023-05-23T08:23:01;21.80;77.50
38592;DHT22;24356;48.460;11.450;2023-05-23T08:25:27;22.00;77.30
38592;DHT22;24356;48.460;11.450;2023-05-23T08:27:55;22.10;77.30
38592;DHT22;24356;48.460;11.450;2023-05-23T08:30:22;22.20;77.00
38592;DHT22;24356;48.460;11.450;2023-05-23T08:32:52;22.30;76.90
38592;DHT22;24356;48.460;11.450;2023-05-23T08:35:18;22.30;76.70
38592;DHT22;24356;48.460;11.450;2023-05-23T08:37:44;22.40;76.80
38592;DHT22;24356;48.460;11.450;2023-05-23T08:40:14;22.40;75.90
38592;DHT22;24356;48.460;11.450;2023-05-23T08:42:42;22.40;75.10
38592;DHT22;24356;48.460;11.450;2023-05-23T08:45:08;22.40;75.70
38592;DHT22;24356;48.460;11.450;2023-05-23T08:47:36;22.40;75.60
38592;DHT22;24356;48.460;11.450;2023-05-23T08:53:16;22.40;74.90
38592;DHT22;24356;48.460;11.450;2023-05-23T08:55:49;22.50;75.10
38592;DHT22;24356;48.460;11.450;2023-05-23T08:58:20;22.60;75.10
38592;DHT22;24356;48.460;11.450;2023-05-23T09:00:47;22.70;75.30
38592;DHT22;24356;48.460;11.450;2023-05-23T09:03:14;22.70;75.40
38592;DHT22;24356;48.460;11.450;2023-05-23T09:05:41;22.80;75.10
38592;DHT22;24356;48.460;11.450;2023-05-23T09:08:06;22.80;74.50
38592;DHT22;24356;48.460;11.450;2023-05-23T09:10:32;22.90;73.80
38592;DHT22;24356;48.460;11.450;2023-05-23T09:12:58;22.90;73.70
38592;DHT22;24356;48.460;11.450;2023-05-23T09:15:28;23.00;73.90
38592;DHT22;24356;48.460;11.450;2023-05-23T09:18:00;23.10;74.40
38592;DHT22;24356;48.460;11.450;2023-05-23T09:20:29;23.10;74.70
38592;DHT22;24356;48.460;11.450;2023-05-23T09:22:55;23.20;73.60
38592;DHT22;24356;48.460;11.450;2023-05-23T09:25:20;23.20;72.80
38592;DHT22;24356;48.460;11.450;2023-05-23T09:27:46;23.20;72.50
38592;DHT22;24356;48.460;11.450;2023-05-23T09:30:12;23.20;72.70
38592;DHT22;24356;48.460;11.450;2023-05-23T09:32:38;23.20;72.40
38592;DHT22;24356;48.460;11.450;2023-05-23T09:35:05;23.20;72.30
38592;DHT22;24356;48.460;11.450;2023-05-23T09:37:39;23.30;72.00
38592;DHT22;24356;48.460;11.450;2023-05-23T09:40:07;23.20;71.80
38592;DHT22;24356;48.460;11.450;2023-05-23T09:42:45;23.20;71.50
38592;DHT22;24356;48.460;11.450;2023-05-23T09:45:11;23.20;71.70
38592;DHT22;24356;48.460;11.450;2023-05-23T09:47:38;23.30;71.90
38592;DHT22;24356;48.460;11.450;2023-05-23T09:50:04;23.40;71.90
38592;DHT22;24356;48.460;11.450;2023-05-23T09:52:35;23.40;71.70
38592;DHT22;24356;48.460;11.450;2023-05-23T09:55:37;23.50;71.60
38592;DHT22;24356;48.460;11.450;2023-05-23T09:58:05;23.50;71.50
38592;DHT22;24356;48.460;11.450;2023-05-23T10:00:31;23.60;71.50
38592;DHT22;24356;48.460;11.450;2023-05-23T10:03:10;23.70;71.80
38592;DHT22;24356;48.460;11.450;2023-05-23T10:05:43;23.90;72.30
38592;DHT22;24356;48.460;11.450;2023-05-23T10:08:15;24.10;73.10
38592;DHT22;24356;48.460;11.450;2023-05-23T10:11:07;24.30;72.50
38592;DHT22;24356;48.460;11.450;2023-05-23T10:13:43;24.50;72.20
38592;DHT22;24356;48.460;11.450;2023-05-23T10:18:44;24.80;71.90
38592;DHT22;24356;48.460;11.450;2023-05-23T10:21:22;25.00;71.60
38592;DHT22;24356;48.460;11.450;2023-05-23T10:23:49;25.10;70.30
38592;DHT22;24356;48.460;11.450;2023-05-23T10:26:16;25.20;70.10
38592;DHT22;24356;48.460;11.450;2023-05-23T10:28:43;25.20;69.30
38592;DHT22;24356;48.460;11.450;2023-05-23T10:31:10;25.10;68.40
38592;DHT22;24356;48.460;11.450;2023-05-23T10:33:41;25.10;68.90
38592;DHT22;24356;48.460;11.450;2023-05-23T10:36:33;25.10;69.30
38592;DHT22;24356;48.460;11.450;2023-05-23T10:39:03;25.20;69.10
38592;DHT22;24356;48.460;11.450;2023-05-23T10:41:33;25.30;69.20
38592;DHT22;24356;48.460;11.450;2023-05-23T10:44:24;25.40;68.60
38592;DHT22;24356;48.460;11.450;2023-05-23T10:49:20;25.40;68.30
38592;DHT22;24356;48.460;11.450;2023-05-23T10:51:49;25.40;68.10
38592;DHT22;24356;48.460;11.450;2023-05-23T10:54:17;25.50;68.20
38592;DHT22;24356;48.460;11.450;2023-05-23T10:56:43;25.60;68.30
38592;DHT22;24356;48.460;11.450;2023-05-23T10:59:19;25.80;67.80
38592;DHT22;24356;48.460;11.450;2023-05-23T11:01:45;25.80;67.20
38592;DHT22;24356;48.460;11.450;2023-05-23T11:04:11;25.80;67.00
38592;DHT22;24356;48.460;11.450;2023-05-23T11:06:43;25.70;66.50
38592;DHT22;24356;48.460;11.450;2023-05-23T11:09:16;25.60;66.30
38592;DHT22;24356;48.460;11.450;2023-05-23T11:15:17;25.40;67.10
38592;DHT22;24356;48.460;11.450;2023-05-23T11:17:17;25.40;67.60
38592;DHT22;24356;48.460;11.450;2023-05-23T11:20:02;25.50;67.70
38592;DHT22;24356;48.460;11.450;2023-05-23T11:22:30;25.60;68.00
38592;DHT22;24356;48.460;11.450;2023-05-23T11:24:57;25.80;67.50
38592;DHT22;24356;48.460;11.450;2023-05-23T11:27:39;25.80;67.10
38592;DHT22;24356;48.460;11.450;2023-05-23T11:30:16;25.90;66.70
38592;DHT22;24356;48.460;11.450;2023-05-23T11:32:48;25.80;66.60
38592;DHT22;24356;48.460;11.450;2023-05-23T11:35:15;25.80;66.30
38592;DHT22;24356;48.460;11.450;2023-05-23T11:37:42;25.80;66.40
38592;DHT22;24356;48.460;11.450;2023-05-23T11:40:25;25.80;66.50
38592;DHT22;24356;48.460;11.450;2023-05-23T11:42:52;25.80;66.70
38592;DHT22;24356;48.460;11.450;2023-05-23T11:45:25;25.90;66.80
38592;DHT22;24356;48.460;11.450;2023-05-23T11:47:51;26.00;66.60
38592;DHT22;24356;48.460;11.450;2023-05-23T11:50:17;26.00;66.60
38592;DHT22;24356;48.460;11.450;2023-05-23T11:52:45;26.00;66.50
38592;DHT22;24356;48.460;11.450;2023-05-23T11:55:16;26.10;66.40
38592;DHT22;24356;48.460;11.450;2023-05-23T11:57:42;26.10;66.40
38592;DHT22;24356;48.460;11.450;2023-05-23T12:00:09;26.10;66.20
38592;DHT22;24356;48.460;11.450;2023-05-23T12:02:39;26.10;66.20
38592;DHT22;24356;48.460;11.450;2023-05-23T12:05:10;26.20;66.50
38592;DHT22;24356;48.460;11.450;2023-05-23T12:07:40;26.30;66.30
38592;DHT22;24356;48.460;11.450;2023-05-23T12:10:07;26.30;66.10
38592;DHT22;24356;48.460;11.450;2023-05-23T12:12:33;26.30;65.80
38592;DHT22;24356;48.460;11.450;2023-05-23T12:15:00;26.30;65.80
38592;DHT22;24356;48.460;11.450;2023-05-23T12:17:25;26.30;65.90
38592;DHT22;24356;48.460;11.450;2023-05-23T12:19:51;26.30;66.30
38592;DHT22;24356;48.460;11.450;2023-05-23T12:22:24;26.30;66.30
38592;DHT22;24356;48.460;11.450;2023-05-23T12:24:54;26.40;66.00
38592;DHT22;24356;48.460;11.450;2023-05-23T12:27:30;26.40;65.60
38592;DHT22;24356;48.460;11.450;2023-05-23T12:30:13;26.30;65.40
38592;DHT22;24356;48.460;11.450;2023-05-23T12:32:40;26.30;65.10
38592;DHT22;24356;48.460;11.450;2023-05-23T12:35:08;26.30;65.20
38592;DHT22;24356;48.460;11.450;2023-05-23T12:37:38;26.20;65.20
38592;DHT22;24356;48.460;11.450;2023-05-23T12:40:17;26.20;65.10
38592;DHT22;24356;48.460;11.450;2023-05-23T12:42:50;26.10;65.10
38592;DHT22;24356;48.460;11.450;2023-05-23T12:45:24;26.10;65.60
38592;DHT22;24356;48.460;11.450;2023-05-23T12:47:55;26.10;66.20
38592;DHT22;24356;48.460;11.450;2023-05-23T12:50:20;26.20;66.50
38592;DHT22;24356;48.460;11.450;2023-05-23T12:52:46;26.30;66.50
38592;DHT22;24356;48.460;11.450;2023-05-23T12:55:12;26.40;66.50
38592;DHT22;24356;48.460;11.450;2023-05-23T12:57:38;26.40;66.20
38592;DHT22;24356;48.460;11.450;2023-05-23T13:00:04;26.40;65.90
38592;DHT22;24356;48.460;11.450;2023-05-23T13:02:31;26.40;65.60
38592;DHT22;24356;48.460;11.450;2023-05-23T13:04:56;26.40;65.80
38592;DHT22;24356;48.460;11.450;2023-05-23T13:07:22;26.40;65.60
38592;DHT22;24356;48.460;11.450;2023-05-23T13:09:48;26.40;65.50
38592;DHT22;24356;48.460;11.450;2023-05-23T13:12:14;26.40;65.30
38592;DHT22;24356;48.460;11.450;2023-05-23T13:14:40;26.30;65.10
38592;DHT22;24356;48.460;11.450;2023-05-23T13:17:06;26.30;65.30
38592;DHT22;24356;48.460;11.450;2023-05-23T13:19:32;26.40;65.70
38592;DHT22;24356;48.460;11.450;2023-05-23T13:21:57;26.40;66.20
38592;DHT22;24356;48.460;11.450;2023-05-23T13:24:25;26.50;65.90
38592;DHT22;24356;48.460;11.450;2023-05-23T13:26:51;26.50;66.00
38592;DHT22;24356;48.460;11.450;2023-05-23T13:29:16;26.60;65.80
38592;DHT22;24356;48.460;11.450;2023-05-23T13:31:42;26.60;65.70
38592;DHT22;24356;48.460;11.450;2023-05-23T13:34:08;26.70;65.90
38592;DHT22;24356;48.460;11.450;2023-05-23T13:36:33;26.70;65.70
38592;DHT22;24356;48.460;11.450;2023-05-23T13:39:00;26.70;65.70
38592;DHT22;24356;48.460;11.450;2023-05-23T13:41:26;26.80;65.80
38592;DHT22;24356;48.460;11.450;2023-05-23T13:43:52;26.90;66.10
38592;DHT22;24356;48.460;11.450;2023-05-23T13:46:17;27.00;66.40
38592;DHT22;24356;48.460;11.450;2023-05-23T13:48:43;27.10;66.20
38592;DHT22;24356;48.460;11.450;2023-05-23T13:51:09;27.10;66.30
38592;DHT22;24356;48.460;11.450;2023-05-23T13:53:34;27.20;66.30
38592;DHT22;24356;48.460;11.450;2023-05-23T13:56:00;27.30;65.90
38592;DHT22;24356;48.460;11.450;2023-05-23T13:58:26;27.40;65.70
38592;DHT22;24356;48.460;11.450;2023-05-23T14:00:51;27.50;66.10
38592;DHT22;24356;48.460;11.450;2023-05-23T14:03:18;27.60;66.40
38592;DHT22;24356;48.460;11.450;2023-05-23T14:05:43;27.60;66.70
38592;DHT22;24356;48.460;11.450;2023-05-23T14:08:09;27.70;66.80
38592;DHT22;24356;48.460;11.450;2023-05-23T14:10:36;27.70;67.20
38592;DHT22;24356;48.460;11.450;2023-05-23T14:13:02;27.80;66.50
38592;DHT22;24356;48.460;11.450;2023-05-23T14:15:27;27.90;67.00
38592;DHT22;24356;48.460;11.450;2023-05-23T14:17:53;27.90;66.40
38592;DHT22;24356;48.460;11.450;2023-05-23T14:20:21;27.90;65.70
38592;DHT22;24356;48.460;11.450;2023-05-23T14:22:47;27.90;66.50
38592;DHT22;24356;48.460;11.450;2023-05-23T14:25:13;27.90;66.30
38592;DHT22;24356;48.460;11.450;2023-05-23T14:27:39;27.90;67.40
38592;DHT22;24356;48.460;11.450;2023-05-23T14:30:05;27.90;67.20
38592;DHT22;24356;48.460;11.450;2023-05-23T14:32:31;28.00;67.10
38592;DHT22;24356;48.460;11.450;2023-05-23T14:35:03;27.90;65.90
38592;DHT22;24356;48.460;11.450;2023-05-23T14:37:29;27.90;66.40
38592;DHT22;24356;48.460;11.450;2023-05-23T14:39:55;27.90;67.00
38592;DHT22;24356;48.460;11.450;2023-05-23T14:42:20;27.90;66.40
38592;DHT22;24356;48.460;11.450;2023-05-23T14:44:46;27.90;67.20
38592;DHT22;24356;48.460;11.450;2023-05-23T14:47:11;28.00;67.40
38592;DHT22;24356;48.460;11.450;2023-05-23T14:49:37;27.90;66.70
38592;DHT22;24356;48.460;11.450;2023-05-23T14:52:03;27.90;67.00
38592;DHT22;24356;48.460;11.450;2023-05-23T14:54:28;27.90;66.50
38592;DHT22;24356;48.460;11.450;2023-05-23T14:56:54;27.90;66.30
38592;DHT22;24356;48.460;11.450;2023-05-23T14:59:21;27.90;66.90
38592;DHT22;24356;48.460;11.450;2023-05-23T15:01:47;27.90;67.30
38592;DHT22;24356;48.460;11.450;2023-05-23T15:04:12;27.90;65.60
38592;DHT22;24356;48.460;11.450;2023-05-23T15:06:38;27.80;65.00
38592;DHT22;24356;48.460;11.450;2023-05-23T15:09:04;27.70;66.00
38592;DHT22;24356;48.460;11.450;2023-05-23T15:11:30;27.60;65.40
38592;DHT22;24356;48.460;11.450;2023-05-23T15:14:00;27.50;64.30
38592;DHT22;24356;48.460;11.450;2023-05-23T15:16:26;27.40;64.40
38592;DHT22;24356;48.460;11.450;2023-05-23T15:18:56;27.30;64.80
38592;DHT22;24356;48.460;11.450;2023-05-23T15:21:22;27.20;65.00
38592;DHT22;24356;48.460;11.450;2023-05-23T15:23:47;27.20;66.00
38592;DHT22;24356;48.460;11.450;2023-05-23T15:26:13;27.10;65.10
38592;DHT22;24356;48.460;11.450;2023-05-23T15:28:38;27.00;65.00
38592;DHT22;24356;48.460;11.450;2023-05-23T15:31:04;26.90;64.30
38592;DHT22;24356;48.460;11.450;2023-05-23T15:33:29;26.80;64.20
38592;DHT22;24356;48.460;11.450;2023-05-23T15:35:55;26.70;64.20
38592;DHT22;24356;48.460;11.450;2023-05-23T15:38:23;26.60;64.20
38592;DHT22;24356;48.460;11.450;2023-05-23T15:40:48;26.50;64.20
38592;DHT22;24356;48.460;11.450;2023-05-23T15:43:16;26.40;64.20